sensor_id;sensor_type;location;lat;lon;timestamp;P1;durP1;ratioP1;P2;durP2;ratioP2
8831;SDS011;4452;50.756;4.472;2022-07-12T00:01:37;6.93;;;4.93;;
8831;SDS011;4452;50.756;4.472;2022-07-12T00:04:03;5.15;;;4.70;;
8831;SDS011;4452;50.756;4.472;2022-07-12T00:06:29;5.25;;;4.85;;
8831;SDS011;4452;50.756;4.472;2022-07-12T00:08:54;5.47;;;4.78;;
8831;SDS011;4452;50.756;4.472;2022-07-12T00:11:20;6.05;;;5.10;;
8831;SDS011;4452;50.756;4.472;2022-07-12T00:13:46;9.68;;;5.30;;
8831;SDS011;4452;50.756;4.472;2022-07-12T00:16:11;5.43;;;4.93;;
8831;SDS011;4452;50.756;4.472;2022-07-12T00:18:37;6.15;;;4.88;;
8831;SDS011;4452;50.756;4.472;2022-07-12T00:21:03;9.40;;;5.32;;
8831;SDS011;4452;50.756;4.472;2022-07-12T00:23:28;5.05;;;4.63;;
8831;SDS011;4452;50.756;4.472;2022-07-12T00:25:54;5.07;;;4.65;;
8831;SDS011;4452;50.756;4.472;2022-07-12T00:28:20;5.65;;;4.82;;
8831;SDS011;4452;50.756;4.472;2022-07-12T00:30:45;8.43;;;5.38;;
8831;SDS011;4452;50.756;4.472;2022-07-12T00:33:11;5.53;;;5.03;;
8831;SDS011;4452;50.756;4.472;2022-07-12T00:35:37;7.50;;;5.25;;
8831;SDS011;4452;50.756;4.472;2022-07-12T00:38:02;5.72;;;5.22;;
8831;SDS011;4452;50.756;4.472;2022-07-12T00:40:28;5.80;;;5.30;;
8831;SDS011;4452;50.756;4.472;2022-07-12T00:42:53;6.40;;;5.00;;
8831;SDS011;4452;50.756;4.472;2022-07-12T00:45:19;7.25;;;5.30;;
8831;SDS011;4452;50.756;4.472;2022-07-12T00:47:45;5.47;;;4.97;;
8831;SDS011;4452;50.756;4.472;2022-07-12T00:50:15;6.72;;;5.03;;
8831;SDS011;4452;50.756;4.472;2022-07-12T00:52:43;5.70;;;4.95;;
8831;SDS011;4452;50.756;4.472;2022-07-12T00:55:11;5.80;;;5.20;;
8831;SDS011;4452;50.756;4.472;2022-07-12T00:57:40;6.57;;;4.95;;
8831;SDS011;4452;50.756;4.472;2022-07-12T01:00:09;8.77;;;5.30;;
8831;SDS011;4452;50.756;4.472;2022-07-12T01:02:40;9.13;;;5.50;;
8831;SDS011;4452;50.756;4.472;2022-07-12T01:05:07;6.85;;;5.40;;
8831;SDS011;4452;50.756;4.472;2022-07-12T01:07:33;6.68;;;5.20;;
8831;SDS011;4452;50.756;4.472;2022-07-12T01:10:00;5.70;;;5.18;;
8831;SDS011;4452;50.756;4.472;2022-07-12T01:12:26;5.57;;;5.07;;
8831;SDS011;4452;50.756;4.472;2022-07-12T01:14:52;8.73;;;4.88;;
8831;SDS011;4452;50.756;4.472;2022-07-12T01:17:22;6.32;;;4.93;;
8831;SDS011;4452;50.756;4.472;2022-07-12T01:19:49;6.00;;;4.90;;
8831;SDS011;4452;50.756;4.472;2022-07-12T01:22:17;5.05;;;4.65;;
8831;SDS011;4452;50.756;4.472;2022-07-12T01:24:46;5.40;;;4.80;;
8831;SDS011;4452;50.756;4.472;2022-07-12T01:27:12;7.13;;;4.93;;
8831;SDS011;4452;50.756;4.472;2022-07-12T01:29:39;5.25;;;4.63;;
8831;SDS011;4452;50.756;4.472;2022-07-12T01:32:05;6.47;;;4.82;;
8831;SDS011;4452;50.756;4.472;2022-07-12T01:34:53;6.88;;;4.72;;
8831;SDS011;4452;50.756;4.472;2022-07-12T01:37:36;6.63;;;5.90;;
8831;SDS011;4452;50.756;4.472;2022-07-12T01:40:07;7.05;;;6.40;;
8831;SDS011;4452;50.756;4.472;2022-07-12T01:42:35;10.18;;;6.72;;
8831;SDS011;4452;50.756;4.472;2022-07-12T01:45:01;7.30;;;6.47;;
8831;SDS011;4452;50.756;4.472;2022-07-12T01:47:30;8.40;;;5.65;;
8831;SDS011;4452;50.756;4.472;2022-07-12T01:49:56;7.88;;;6.25;;
8831;SDS011;4452;50.756;4.472;2022-07-12T01:52:22;8.60;;;6.20;;
8831;SDS011;4452;50.756;4.472;2022-07-12T01:54:48;6.40;;;5.80;;
8831;SDS011;4452;50.756;4.472;2022-07-12T01:57:14;6.50;;;5.90;;
8831;SDS011;4452;50.756;4.472;2022-07-12T01:59:40;7.68;;;6.25;;
8831;SDS011;4452;50.756;4.472;2022-07-12T02:02:07;9.75;;;5.93;;
8831;SDS011;4452;50.756;4.472;2022-07-12T02:04:33;7.20;;;6.53;;
8831;SDS011;4452;50.756;4.472;2022-07-12T02:06:59;10.05;;;6.30;;
8831;SDS011;4452;50.756;4.472;2022-07-12T02:09:25;7.55;;;6.45;;
8831;SDS011;4452;50.756;4.472;2022-07-12T02:11:53;9.18;;;6.38;;
8831;SDS011;4452;50.756;4.472;2022-07-12T02:14:19;7.88;;;6.20;;
8831;SDS011;4452;50.756;4.472;2022-07-12T02:16:45;6.40;;;5.80;;
8831;SDS011;4452;50.756;4.472;2022-07-12T02:19:11;6.45;;;5.85;;
8831;SDS011;4452;50.756;4.472;2022-07-12T02:21:37;7.97;;;6.85;;
8831;SDS011;4452;50.756;4.472;2022-07-12T02:24:04;9.15;;;6.55;;
8831;SDS011;4452;50.756;4.472;2022-07-12T02:26:32;9.15;;;6.97;;
8831;SDS011;4452;50.756;4.472;2022-07-12T02:28:58;10.02;;;6.53;;
8831;SDS011;4452;50.756;4.472;2022-07-12T02:31:24;9.00;;;7.25;;
8831;SDS011;4452;50.756;4.472;2022-07-12T02:33:51;9.32;;;7.65;;
8831;SDS011;4452;50.756;4.472;2022-07-12T02:36:17;15.73;;;8.52;;
8831;SDS011;4452;50.756;4.472;2022-07-12T02:38:42;7.90;;;7.10;;
8831;SDS011;4452;50.756;4.472;2022-07-12T02:41:08;10.30;;;6.93;;
8831;SDS011;4452;50.756;4.472;2022-07-12T02:43:34;12.60;;;7.43;;
8831;SDS011;4452;50.756;4.472;2022-07-12T02:46:03;10.38;;;7.35;;
8831;SDS011;4452;50.756;4.472;2022-07-12T02:48:31;10.90;;;7.97;;
8831;SDS011;4452;50.756;4.472;2022-07-12T02:50:57;11.30;;;8.13;;
8831;SDS011;4452;50.756;4.472;2022-07-12T02:53:23;11.40;;;7.05;;
8831;SDS011;4452;50.756;4.472;2022-07-12T02:55:49;9.82;;;7.00;;
8831;SDS011;4452;50.756;4.472;2022-07-12T02:58:15;8.57;;;6.32;;
8831;SDS011;4452;50.756;4.472;2022-07-12T03:00:40;6.30;;;5.70;;
8831;SDS011;4452;50.756;4.472;2022-07-12T03:03:07;6.78;;;5.70;;
8831;SDS011;4452;50.756;4.472;2022-07-12T03:05:34;6.82;;;5.88;;
8831;SDS011;4452;50.756;4.472;2022-07-12T03:08:00;10.95;;;6.32;;
8831;SDS011;4452;50.756;4.472;2022-07-12T03:10:28;6.78;;;5.88;;
8831;SDS011;4452;50.756;4.472;2022-07-12T03:12:54;6.72;;;6.03;;
8831;SDS011;4452;50.756;4.472;2022-07-12T03:15:19;8.15;;;6.30;;
8831;SDS011;4452;50.756;4.472;2022-07-12T03:17:45;6.95;;;6.15;;
8831;SDS011;4452;50.756;4.472;2022-07-12T03:20:11;6.68;;;6.07;;
8831;SDS011;4452;50.756;4.472;2022-07-12T03:22:39;11.80;;;6.55;;
8831;SDS011;4452;50.756;4.472;2022-07-12T03:25:13;7.15;;;6.43;;
8831;SDS011;4452;50.756;4.472;2022-07-12T03:27:39;9.30;;;6.63;;
8831;SDS011;4452;50.756;4.472;2022-07-12T03:30:06;7.68;;;6.38;;
8831;SDS011;4452;50.756;4.472;2022-07-12T03:32:33;8.75;;;6.85;;
8831;SDS011;4452;50.756;4.472;2022-07-12T03:34:59;8.70;;;6.65;;
8831;SDS011;4452;50.756;4.472;2022-07-12T03:37:25;7.85;;;6.97;;
8831;SDS011;4452;50.756;4.472;2022-07-12T03:39:50;7.65;;;6.70;;
8831;SDS011;4452;50.756;4.472;2022-07-12T03:42:16;8.90;;;7.40;;
8831;SDS011;4452;50.756;4.472;2022-07-12T03:44:42;13.00;;;8.90;;
8831;SDS011;4452;50.756;4.472;2022-07-12T03:47:07;12.73;;;8.20;;
8831;SDS011;4452;50.756;4.472;2022-07-12T03:49:33;11.95;;;9.60;;
8831;SDS011;4452;50.756;4.472;2022-07-12T03:51:58;15.68;;;7.88;;
8831;SDS011;4452;50.756;4.472;2022-07-12T03:54:24;11.85;;;8.48;;
8831;SDS011;4452;50.756;4.472;2022-07-12T03:56:50;9.50;;;7.88;;
8831;SDS011;4452;50.756;4.472;2022-07-12T03:59:34;8.65;;;7.20;;
8831;SDS011;4452;50.756;4.472;2022-07-12T04:01:59;9.25;;;7.53;;
8831;SDS011;4452;50.756;4.472;2022-07-12T04:04:27;9.40;;;7.13;;
8831;SDS011;4452;50.756;4.472;2022-07-12T04:06:52;10.15;;;7.40;;
8831;SDS011;4452;50.756;4.472;2022-07-12T04:09:18;11.20;;;7.65;;
8831;SDS011;4452;50.756;4.472;2022-07-12T04:11:45;12.88;;;8.20;;
8831;SDS011;4452;50.756;4.472;2022-07-12T04:14:10;12.80;;;8.68;;
8831;SDS011;4452;50.756;4.472;2022-07-12T04:16:36;11.55;;;8.60;;
8831;SDS011;4452;50.756;4.472;2022-07-12T04:19:01;9.80;;;7.72;;
8831;SDS011;4452;50.756;4.472;2022-07-12T04:21:30;8.13;;;7.32;;
8831;SDS011;4452;50.756;4.472;2022-07-12T04:23:56;8.73;;;7.38;;
8831;SDS011;4452;50.756;4.472;2022-07-12T04:26:22;13.93;;;8.38;;
8831;SDS011;4452;50.756;4.472;2022-07-12T04:28:48;10.88;;;7.97;;
8831;SDS011;4452;50.756;4.472;2022-07-12T04:31:13;9.75;;;7.72;;
8831;SDS011;4452;50.756;4.472;2022-07-12T04:33:39;12.38;;;7.63;;
8831;SDS011;4452;50.756;4.472;2022-07-12T04:36:05;9.13;;;7.70;;
8831;SDS011;4452;50.756;4.472;2022-07-12T04:38:31;11.68;;;7.70;;
8831;SDS011;4452;50.756;4.472;2022-07-12T04:40:56;8.05;;;7.05;;
8831;SDS011;4452;50.756;4.472;2022-07-12T04:43:22;11.43;;;7.40;;
8831;SDS011;4452;50.756;4.472;2022-07-12T04:45:51;8.30;;;7.45;;
8831;SDS011;4452;50.756;4.472;2022-07-12T04:48:16;11.98;;;8.27;;
8831;SDS011;4452;50.756;4.472;2022-07-12T04:50:42;8.90;;;7.50;;
8831;SDS011;4452;50.756;4.472;2022-07-12T04:53:08;10.60;;;7.57;;
8831;SDS011;4452;50.756;4.472;2022-07-12T04:55:35;13.85;;;8.13;;
8831;SDS011;4452;50.756;4.472;2022-07-12T04:58:01;8.80;;;7.90;;
8831;SDS011;4452;50.756;4.472;2022-07-12T05:00:27;10.48;;;8.40;;
8831;SDS011;4452;50.756;4.472;2022-07-12T05:02:52;13.98;;;8.07;;
8831;SDS011;4452;50.756;4.472;2022-07-12T05:05:18;9.98;;;8.18;;
8831;SDS011;4452;50.756;4.472;2022-07-12T05:07:44;9.90;;;7.90;;
8831;SDS011;4452;50.756;4.472;2022-07-12T05:10:10;11.18;;;7.90;;
8831;SDS011;4452;50.756;4.472;2022-07-12T05:12:36;12.32;;;8.65;;
8831;SDS011;4452;50.756;4.472;2022-07-12T05:15:03;10.30;;;8.75;;
8831;SDS011;4452;50.756;4.472;2022-07-12T05:17:30;8.73;;;7.82;;
8831;SDS011;4452;50.756;4.472;2022-07-12T05:19:56;13.13;;;8.20;;
8831;SDS011;4452;50.756;4.472;2022-07-12T05:22:22;14.65;;;8.02;;
8831;SDS011;4452;50.756;4.472;2022-07-12T05:24:47;11.05;;;8.32;;
8831;SDS011;4452;50.756;4.472;2022-07-12T05:27:13;11.40;;;8.05;;
8831;SDS011;4452;50.756;4.472;2022-07-12T05:29:39;10.13;;;8.23;;
8831;SDS011;4452;50.756;4.472;2022-07-12T05:32:04;10.20;;;8.25;;
8831;SDS011;4452;50.756;4.472;2022-07-12T05:34:30;12.43;;;8.52;;
8831;SDS011;4452;50.756;4.472;2022-07-12T05:36:56;12.50;;;8.25;;
8831;SDS011;4452;50.756;4.472;2022-07-12T05:39:22;10.45;;;8.25;;
8831;SDS011;4452;50.756;4.472;2022-07-12T05:41:47;11.70;;;8.63;;
8831;SDS011;4452;50.756;4.472;2022-07-12T05:44:13;10.85;;;8.15;;
8831;SDS011;4452;50.756;4.472;2022-07-12T05:46:42;11.45;;;8.50;;
8831;SDS011;4452;50.756;4.472;2022-07-12T05:49:08;10.55;;;8.02;;
8831;SDS011;4452;50.756;4.472;2022-07-12T05:51:33;11.10;;;7.53;;
8831;SDS011;4452;50.756;4.472;2022-07-12T05:54:17;9.93;;;6.88;;
8831;SDS011;4452;50.756;4.472;2022-07-12T05:56:43;10.85;;;8.05;;
8831;SDS011;4452;50.756;4.472;2022-07-12T05:59:09;15.18;;;8.57;;
8831;SDS011;4452;50.756;4.472;2022-07-12T06:01:35;11.90;;;8.70;;
8831;SDS011;4452;50.756;4.472;2022-07-12T06:04:00;10.55;;;8.32;;
8831;SDS011;4452;50.756;4.472;2022-07-12T06:06:26;14.93;;;8.45;;
8831;SDS011;4452;50.756;4.472;2022-07-12T06:08:52;12.18;;;8.50;;
8831;SDS011;4452;50.756;4.472;2022-07-12T06:11:17;10.05;;;8.18;;
8831;SDS011;4452;50.756;4.472;2022-07-12T06:13:43;12.40;;;8.82;;
8831;SDS011;4452;50.756;4.472;2022-07-12T06:16:09;11.27;;;7.90;;
8831;SDS011;4452;50.756;4.472;2022-07-12T06:18:35;9.63;;;8.05;;
8831;SDS011;4452;50.756;4.472;2022-07-12T06:21:01;18.98;;;7.63;;
8831;SDS011;4452;50.756;4.472;2022-07-12T06:23:27;10.80;;;8.40;;
8831;SDS011;4452;50.756;4.472;2022-07-12T06:25:53;8.80;;;7.90;;
8831;SDS011;4452;50.756;4.472;2022-07-12T06:28:18;9.57;;;7.20;;
8831;SDS011;4452;50.756;4.472;2022-07-12T06:30:44;9.52;;;7.97;;
8831;SDS011;4452;50.756;4.472;2022-07-12T06:33:09;9.73;;;7.65;;
8831;SDS011;4452;50.756;4.472;2022-07-12T06:35:35;10.90;;;7.68;;
8831;SDS011;4452;50.756;4.472;2022-07-12T06:38:01;12.18;;;8.18;;
8831;SDS011;4452;50.756;4.472;2022-07-12T06:40:27;9.27;;;7.60;;
8831;SDS011;4452;50.756;4.472;2022-07-12T06:42:53;12.10;;;7.78;;
8831;SDS011;4452;50.756;4.472;2022-07-12T06:45:18;10.25;;;7.88;;
8831;SDS011;4452;50.756;4.472;2022-07-12T06:47:44;10.93;;;7.68;;
8831;SDS011;4452;50.756;4.472;2022-07-12T06:50:10;10.93;;;7.70;;
8831;SDS011;4452;50.756;4.472;2022-07-12T06:52:36;11.13;;;7.53;;
8831;SDS011;4452;50.756;4.472;2022-07-12T06:55:01;8.48;;;7.57;;
8831;SDS011;4452;50.756;4.472;2022-07-12T06:57:27;12.80;;;7.93;;
8831;SDS011;4452;50.756;4.472;2022-07-12T06:59:55;11.38;;;8.52;;
8831;SDS011;4452;50.756;4.472;2022-07-12T07:02:21;9.10;;;7.82;;
8831;SDS011;4452;50.756;4.472;2022-07-12T07:04:47;12.73;;;9.48;;
8831;SDS011;4452;50.756;4.472;2022-07-12T07:07:13;9.75;;;8.73;;
8831;SDS011;4452;50.756;4.472;2022-07-12T07:09:38;10.43;;;8.20;;
8831;SDS011;4452;50.756;4.472;2022-07-12T07:12:04;9.68;;;8.18;;
8831;SDS011;4452;50.756;4.472;2022-07-12T07:14:30;11.60;;;8.95;;
8831;SDS011;4452;50.756;4.472;2022-07-12T07:16:56;11.07;;;7.97;;
8831;SDS011;4452;50.756;4.472;2022-07-12T07:19:22;13.73;;;8.40;;
8831;SDS011;4452;50.756;4.472;2022-07-12T07:21:49;11.27;;;7.93;;
8831;SDS011;4452;50.756;4.472;2022-07-12T07:24:15;11.50;;;8.05;;
8831;SDS011;4452;50.756;4.472;2022-07-12T07:26:41;9.73;;;7.90;;
8831;SDS011;4452;50.756;4.472;2022-07-12T07:29:06;14.45;;;7.80;;
8831;SDS011;4452;50.756;4.472;2022-07-12T07:31:50;10.75;;;7.45;;
8831;SDS011;4452;50.756;4.472;2022-07-12T07:34:16;11.98;;;7.57;;
8831;SDS011;4452;50.756;4.472;2022-07-12T07:36:42;13.68;;;7.65;;
8831;SDS011;4452;50.756;4.472;2022-07-12T07:39:07;14.82;;;7.60;;
8831;SDS011;4452;50.756;4.472;2022-07-12T07:41:34;12.70;;;7.40;;
8831;SDS011;4452;50.756;4.472;2022-07-12T07:43:59;13.52;;;7.32;;
8831;SDS011;4452;50.756;4.472;2022-07-12T07:46:25;10.10;;;7.03;;
8831;SDS011;4452;50.756;4.472;2022-07-12T07:48:51;9.60;;;7.25;;
8831;SDS011;4452;50.756;4.472;2022-07-12T07:51:17;9.63;;;7.00;;
8831;SDS011;4452;50.756;4.472;2022-07-12T07:53:42;10.50;;;7.28;;
8831;SDS011;4452;50.756;4.472;2022-07-12T07:56:08;7.63;;;6.25;;
8831;SDS011;4452;50.756;4.472;2022-07-12T07:58:34;12.93;;;7.03;;
8831;SDS011;4452;50.756;4.472;2022-07-12T08:00:59;8.95;;;6.70;;
8831;SDS011;4452;50.756;4.472;2022-07-12T08:03:25;7.20;;;6.47;;
8831;SDS011;4452;50.756;4.472;2022-07-12T08:05:52;12.50;;;7.10;;
8831;SDS011;4452;50.756;4.472;2022-07-12T08:08:18;9.73;;;6.80;;
8831;SDS011;4452;50.756;4.472;2022-07-12T08:10:43;7.43;;;6.38;;
8831;SDS011;4452;50.756;4.472;2022-07-12T08:13:09;7.38;;;6.53;;
8831;SDS011;4452;50.756;4.472;2022-07-12T08:15:35;9.85;;;6.95;;
8831;SDS011;4452;50.756;4.472;2022-07-12T08:18:01;7.30;;;6.43;;
8831;SDS011;4452;50.756;4.472;2022-07-12T08:20:28;9.07;;;6.88;;
8831;SDS011;4452;50.756;4.472;2022-07-12T08:22:54;7.38;;;6.68;;
8831;SDS011;4452;50.756;4.472;2022-07-12T08:25:19;7.40;;;6.32;;
8831;SDS011;4452;50.756;4.472;2022-07-12T08:27:45;7.07;;;6.32;;
8831;SDS011;4452;50.756;4.472;2022-07-12T08:30:11;7.63;;;6.88;;
8831;SDS011;4452;50.756;4.472;2022-07-12T08:32:36;6.70;;;6.10;;
8831;SDS011;4452;50.756;4.472;2022-07-12T08:35:07;6.63;;;6.03;;
8831;SDS011;4452;50.756;4.472;2022-07-12T08:37:33;9.55;;;6.55;;
8831;SDS011;4452;50.756;4.472;2022-07-12T08:39:59;7.70;;;6.40;;
8831;SDS011;4452;50.756;4.472;2022-07-12T08:42:24;6.45;;;5.72;;
8831;SDS011;4452;50.756;4.472;2022-07-12T08:44:53;7.15;;;6.10;;
8831;SDS011;4452;50.756;4.472;2022-07-12T08:47:23;6.22;;;5.63;;
8831;SDS011;4452;50.756;4.472;2022-07-12T08:52:43;9.38;;;5.53;;
8831;SDS011;4452;50.756;4.472;2022-07-12T08:55:17;6.28;;;5.68;;
8831;SDS011;4452;50.756;4.472;2022-07-12T08:57:50;10.27;;;5.80;;
8831;SDS011;4452;50.756;4.472;2022-07-12T09:00:19;6.32;;;5.70;;
8831;SDS011;4452;50.756;4.472;2022-07-12T09:02:55;7.55;;;6.63;;
8831;SDS011;4452;50.756;4.472;2022-07-12T09:05:23;6.28;;;5.68;;
8831;SDS011;4452;50.756;4.472;2022-07-12T09:08:08;6.43;;;5.90;;
8831;SDS011;4452;50.756;4.472;2022-07-12T09:10:51;5.97;;;5.27;;
8831;SDS011;4452;50.756;4.472;2022-07-12T09:13:19;9.73;;;5.70;;
8831;SDS011;4452;50.756;4.472;2022-07-12T09:15:45;7.53;;;5.38;;
8831;SDS011;4452;50.756;4.472;2022-07-12T09:18:12;9.05;;;5.60;;
8831;SDS011;4452;50.756;4.472;2022-07-12T09:20:40;6.10;;;5.50;;
8831;SDS011;4452;50.756;4.472;2022-07-12T09:23:08;6.43;;;5.78;;
8831;SDS011;4452;50.756;4.472;2022-07-12T09:25:35;8.18;;;5.40;;
8831;SDS011;4452;50.756;4.472;2022-07-12T09:28:09;7.78;;;5.30;;
8831;SDS011;4452;50.756;4.472;2022-07-12T09:30:35;5.43;;;4.88;;
8831;SDS011;4452;50.756;4.472;2022-07-12T09:33:05;4.75;;;4.43;;
8831;SDS011;4452;50.756;4.472;2022-07-12T09:38:34;7.63;;;4.70;;
8831;SDS011;4452;50.756;4.472;2022-07-12T09:41:02;6.88;;;4.60;;
8831;SDS011;4452;50.756;4.472;2022-07-12T09:43:28;5.20;;;4.80;;
8831;SDS011;4452;50.756;4.472;2022-07-12T09:45:55;6.85;;;4.80;;
8831;SDS011;4452;50.756;4.472;2022-07-12T09:48:21;5.53;;;4.82;;
8831;SDS011;4452;50.756;4.472;2022-07-12T09:50:49;6.28;;;4.90;;
8831;SDS011;4452;50.756;4.472;2022-07-12T09:53:26;6.15;;;4.50;;
8831;SDS011;4452;50.756;4.472;2022-07-12T09:58:30;5.90;;;4.65;;
8831;SDS011;4452;50.756;4.472;2022-07-12T10:00:59;6.00;;;5.00;;
8831;SDS011;4452;50.756;4.472;2022-07-12T10:03:28;8.98;;;4.90;;
8831;SDS011;4452;50.756;4.472;2022-07-12T10:05:56;5.90;;;5.22;;
8831;SDS011;4452;50.756;4.472;2022-07-12T10:08:26;7.38;;;5.03;;
8831;SDS011;4452;50.756;4.472;2022-07-12T10:10:53;6.82;;;4.53;;
8831;SDS011;4452;50.756;4.472;2022-07-12T10:13:19;4.78;;;4.40;;
8831;SDS011;4452;50.756;4.472;2022-07-12T10:15:49;5.00;;;4.60;;
8831;SDS011;4452;50.756;4.472;2022-07-12T10:18:19;6.25;;;5.00;;
8831;SDS011;4452;50.756;4.472;2022-07-12T10:20:46;5.50;;;5.00;;
8831;SDS011;4452;50.756;4.472;2022-07-12T10:25:44;7.00;;;4.50;;
8831;SDS011;4452;50.756;4.472;2022-07-12T10:28:10;6.38;;;3.95;;
8831;SDS011;4452;50.756;4.472;2022-07-12T10:30:51;4.78;;;3.90;;
8831;SDS011;4452;50.756;4.472;2022-07-12T10:33:18;6.25;;;3.55;;
8831;SDS011;4452;50.756;4.472;2022-07-12T10:38:31;4.45;;;4.05;;
8831;SDS011;4452;50.756;4.472;2022-07-12T10:40:58;4.35;;;3.95;;
8831;SDS011;4452;50.756;4.472;2022-07-12T10:43:44;5.55;;;4.30;;
8831;SDS011;4452;50.756;4.472;2022-07-12T10:46:29;5.15;;;4.32;;
8831;SDS011;4452;50.756;4.472;2022-07-12T10:54:34;5.57;;;3.60;;
8831;SDS011;4452;50.756;4.472;2022-07-12T10:57:04;10.85;;;3.97;;
8831;SDS011;4452;50.756;4.472;2022-07-12T10:59:30;5.13;;;3.70;;
8831;SDS011;4452;50.756;4.472;2022-07-12T11:01:59;4.88;;;3.85;;
8831;SDS011;4452;50.756;4.472;2022-07-12T11:04:25;4.35;;;3.60;;
8831;SDS011;4452;50.756;4.472;2022-07-12T11:06:52;4.38;;;4.05;;
8831;SDS011;4452;50.756;4.472;2022-07-12T11:09:24;5.07;;;3.85;;
8831;SDS011;4452;50.756;4.472;2022-07-12T11:11:50;4.10;;;3.80;;
8831;SDS011;4452;50.756;4.472;2022-07-12T11:14:38;7.10;;;3.80;;
8831;SDS011;4452;50.756;4.472;2022-07-12T11:17:03;5.55;;;3.55;;
8831;SDS011;4452;50.756;4.472;2022-07-12T11:19:29;11.70;;;3.97;;
8831;SDS011;4452;50.756;4.472;2022-07-12T11:21:56;6.38;;;3.92;;
8831;SDS011;4452;50.756;4.472;2022-07-12T11:26:55;6.70;;;3.60;;
8831;SDS011;4452;50.756;4.472;2022-07-12T11:29:23;3.53;;;3.22;;
8831;SDS011;4452;50.756;4.472;2022-07-12T11:31:50;3.40;;;3.13;;
8831;SDS011;4452;50.756;4.472;2022-07-12T11:34:26;3.50;;;3.30;;
8831;SDS011;4452;50.756;4.472;2022-07-12T11:36:52;5.85;;;3.63;;
8831;SDS011;4452;50.756;4.472;2022-07-12T11:39:29;5.90;;;3.35;;
8831;SDS011;4452;50.756;4.472;2022-07-12T11:41:59;6.60;;;3.25;;
8831;SDS011;4452;50.756;4.472;2022-07-12T11:47:10;4.95;;;3.13;;
8831;SDS011;4452;50.756;4.472;2022-07-12T11:49:36;3.47;;;2.83;;
8831;SDS011;4452;50.756;4.472;2022-07-12T11:52:06;5.80;;;3.20;;
8831;SDS011;4452;50.756;4.472;2022-07-12T11:54:32;3.50;;;3.20;;
8831;SDS011;4452;50.756;4.472;2022-07-12T11:57:08;3.50;;;3.30;;
8831;SDS011;4452;50.756;4.472;2022-07-12T11:59:34;5.80;;;3.50;;
8831;SDS011;4452;50.756;4.472;2022-07-12T12:02:07;3.38;;;3.00;;
8831;SDS011;4452;50.756;4.472;2022-07-12T12:07:17;2.50;;;2.40;;
8831;SDS011;4452;50.756;4.472;2022-07-12T12:12:35;3.03;;;2.72;;
8831;SDS011;4452;50.756;4.472;2022-07-12T12:15:19;5.68;;;3.20;;
8831;SDS011;4452;50.756;4.472;2022-07-12T12:17:58;3.97;;;2.90;;
8831;SDS011;4452;50.756;4.472;2022-07-12T12:20:27;5.22;;;3.05;;
8831;SDS011;4452;50.756;4.472;2022-07-12T12:22:56;3.58;;;3.00;;
8831;SDS011;4452;50.756;4.472;2022-07-12T12:25:23;3.22;;;2.92;;
8831;SDS011;4452;50.756;4.472;2022-07-12T12:27:53;3.78;;;3.00;;
8831;SDS011;4452;50.756;4.472;2022-07-12T12:32:52;3.78;;;2.90;;
8831;SDS011;4452;50.756;4.472;2022-07-12T12:35:23;5.03;;;3.20;;
8831;SDS011;4452;50.756;4.472;2022-07-12T12:38:00;8.32;;;4.78;;
8831;SDS011;4452;50.756;4.472;2022-07-12T12:40:28;4.85;;;2.97;;
8831;SDS011;4452;50.756;4.472;2022-07-12T12:43:11;4.07;;;3.67;;
8831;SDS011;4452;50.756;4.472;2022-07-12T12:45:49;4.78;;;3.15;;
8831;SDS011;4452;50.756;4.472;2022-07-12T12:48:20;3.38;;;3.08;;
8831;SDS011;4452;50.756;4.472;2022-07-12T12:50:47;3.67;;;3.20;;
8831;SDS011;4452;50.756;4.472;2022-07-12T12:53:16;4.22;;;3.03;;
8831;SDS011;4452;50.756;4.472;2022-07-12T12:55:42;8.02;;;3.30;;
8831;SDS011;4452;50.756;4.472;2022-07-12T12:58:09;3.67;;;2.65;;
8831;SDS011;4452;50.756;4.472;2022-07-12T13:00:37;6.25;;;3.33;;
8831;SDS011;4452;50.756;4.472;2022-07-12T13:03:07;3.70;;;3.20;;
8831;SDS011;4452;50.756;4.472;2022-07-12T13:05:34;3.40;;;3.10;;
8831;SDS011;4452;50.756;4.472;2022-07-12T13:08:00;3.22;;;2.97;;
8831;SDS011;4452;50.756;4.472;2022-07-12T13:10:27;3.13;;;2.92;;
8831;SDS011;4452;50.756;4.472;2022-07-12T13:12:53;4.32;;;3.08;;
8831;SDS011;4452;50.756;4.472;2022-07-12T13:15:19;7.45;;;3.60;;
8831;SDS011;4452;50.756;4.472;2022-07-12T13:17:45;3.45;;;3.20;;
8831;SDS011;4452;50.756;4.472;2022-07-12T13:20:10;3.80;;;3.45;;
8831;SDS011;4452;50.756;4.472;2022-07-12T13:22:38;3.42;;;3.13;;
8831;SDS011;4452;50.756;4.472;2022-07-12T13:25:04;3.20;;;3.00;;
8831;SDS011;4452;50.756;4.472;2022-07-12T13:27:32;3.47;;;3.15;;
8831;SDS011;4452;50.756;4.472;2022-07-12T13:29:58;5.07;;;3.30;;
8831;SDS011;4452;50.756;4.472;2022-07-12T13:32:24;3.92;;;3.20;;
8831;SDS011;4452;50.756;4.472;2022-07-12T13:34:50;3.70;;;3.40;;
8831;SDS011;4452;50.756;4.472;2022-07-12T13:37:16;3.47;;;3.28;;
8831;SDS011;4452;50.756;4.472;2022-07-12T13:39:42;3.05;;;2.85;;
8831;SDS011;4452;50.756;4.472;2022-07-12T13:42:26;5.40;;;2.85;;
8831;SDS011;4452;50.756;4.472;2022-07-12T13:44:52;7.68;;;3.10;;
8831;SDS011;4452;50.756;4.472;2022-07-12T13:47:19;4.95;;;2.85;;
8831;SDS011;4452;50.756;4.472;2022-07-12T13:49:46;3.28;;;2.97;;
8831;SDS011;4452;50.756;4.472;2022-07-12T13:52:12;4.32;;;2.90;;
8831;SDS011;4452;50.756;4.472;2022-07-12T13:54:38;3.30;;;3.00;;
8831;SDS011;4452;50.756;4.472;2022-07-12T13:57:04;3.38;;;3.08;;
8831;SDS011;4452;50.756;4.472;2022-07-12T13:59:30;4.50;;;3.15;;
8831;SDS011;4452;50.756;4.472;2022-07-12T14:01:55;3.40;;;3.10;;
8831;SDS011;4452;50.756;4.472;2022-07-12T14:04:21;2.95;;;2.75;;
8831;SDS011;4452;50.756;4.472;2022-07-12T14:06:47;2.85;;;2.65;;
8831;SDS011;4452;50.756;4.472;2022-07-12T14:09:14;3.85;;;2.90;;
8831;SDS011;4452;50.756;4.472;2022-07-12T14:11:40;3.00;;;2.80;;
8831;SDS011;4452;50.756;4.472;2022-07-12T14:14:06;3.35;;;2.90;;
8831;SDS011;4452;50.756;4.472;2022-07-12T14:16:32;2.95;;;2.70;;
8831;SDS011;4452;50.756;4.472;2022-07-12T14:18:58;5.43;;;2.90;;
8831;SDS011;4452;50.756;4.472;2022-07-12T14:21:26;3.05;;;2.85;;
8831;SDS011;4452;50.756;4.472;2022-07-12T14:23:52;4.95;;;2.63;;
8831;SDS011;4452;50.756;4.472;2022-07-12T14:26:19;3.40;;;3.10;;
8831;SDS011;4452;50.756;4.472;2022-07-12T14:28:44;5.28;;;2.42;;
8831;SDS011;4452;50.756;4.472;2022-07-12T14:31:10;3.22;;;2.50;;
8831;SDS011;4452;50.756;4.472;2022-07-12T14:33:36;2.70;;;2.50;;
8831;SDS011;4452;50.756;4.472;2022-07-12T14:36:02;3.38;;;2.22;;
8831;SDS011;4452;50.756;4.472;2022-07-12T14:38:28;2.65;;;2.45;;
8831;SDS011;4452;50.756;4.472;2022-07-12T14:40:54;2.88;;;2.65;;
8831;SDS011;4452;50.756;4.472;2022-07-12T14:43:20;3.03;;;2.63;;
8831;SDS011;4452;50.756;4.472;2022-07-12T14:45:45;6.18;;;2.60;;
8831;SDS011;4452;50.756;4.472;2022-07-12T14:48:11;2.88;;;2.70;;
8831;SDS011;4452;50.756;4.472;2022-07-12T14:50:37;4.00;;;2.67;;
8831;SDS011;4452;50.756;4.472;2022-07-12T14:53:03;9.55;;;3.20;;
8831;SDS011;4452;50.756;4.472;2022-07-12T14:55:29;3.80;;;2.80;;
8831;SDS011;4452;50.756;4.472;2022-07-12T14:57:55;5.57;;;2.83;;
8831;SDS011;4452;50.756;4.472;2022-07-12T15:00:22;3.80;;;2.80;;
8831;SDS011;4452;50.756;4.472;2022-07-12T15:02:48;3.17;;;2.92;;
8831;SDS011;4452;50.756;4.472;2022-07-12T15:05:13;2.60;;;2.40;;
8831;SDS011;4452;50.756;4.472;2022-07-12T15:07:39;5.50;;;3.00;;
8831;SDS011;4452;50.756;4.472;2022-07-12T15:10:05;3.05;;;2.85;;
8831;SDS011;4452;50.756;4.472;2022-07-12T15:12:31;4.82;;;2.85;;
8831;SDS011;4452;50.756;4.472;2022-07-12T15:14:57;2.80;;;2.60;;
8831;SDS011;4452;50.756;4.472;2022-07-12T15:17:23;4.72;;;2.83;;
8831;SDS011;4452;50.756;4.472;2022-07-12T15:19:49;6.15;;;2.80;;
8831;SDS011;4452;50.756;4.472;2022-07-12T15:22:15;3.42;;;2.97;;
8831;SDS011;4452;50.756;4.472;2022-07-12T15:24:41;3.78;;;3.10;;
8831;SDS011;4452;50.756;4.472;2022-07-12T15:27:08;2.70;;;2.50;;
8831;SDS011;4452;50.756;4.472;2022-07-12T15:29:37;7.78;;;3.33;;
8831;SDS011;4452;50.756;4.472;2022-07-12T15:32:05;3.22;;;3.03;;
8831;SDS011;4452;50.756;4.472;2022-07-12T15:34:32;5.05;;;2.78;;
8831;SDS011;4452;50.756;4.472;2022-07-12T15:36:57;6.03;;;2.83;;
8831;SDS011;4452;50.756;4.472;2022-07-12T15:39:23;2.88;;;2.67;;
8831;SDS011;4452;50.756;4.472;2022-07-12T15:41:49;4.03;;;2.58;;
8831;SDS011;4452;50.756;4.472;2022-07-12T15:44:16;3.45;;;2.30;;
8831;SDS011;4452;50.756;4.472;2022-07-12T15:46:43;7.18;;;2.75;;